Time;durP1;ratioP1;P1;durP2;ratioP2;P2;SDS_P1;SDS_P2;PMS_P1;PMS_P2;Temp;Humidity;BMP_temperature;BMP_pressure;BME280_temperature;BME280_humidity;BME280_pressure;Samples;Min_cycle;Max_cycle;Signal;HPM_P1;HPM_P2
2022/06/12 00:00:46;;;;;;;8.70;2.13;;;22.20;55.20;;;;;;6260195;28;20262;-47
2022/06/12 00:03:48;;;;;;;9.00;2.25;;;22.30;55.40;;;;;;6266397;28;20048;-50
2022/06/12 00:06:52;;;;;;;6.22;1.65;;;22.30;55.50;;;;;;6263687;28;20048;-52
2022/06/12 00:09:54;;;;;;;9.45;2.10;;;22.20;55.60;;;;;;6263418;28;20051;-54
2022/06/12 00:12:55;;;;;;;;;;;22.40;55.80;;;;;;6268741;28;20036;-51
2022/06/12 00:15:59;;;;;;;8.18;2.35;;;22.20;55.80;;;;;;6273732;28;20038;-51
2022/06/12 00:19:02;;;;;;;11.52;2.55;;;22.20;55.70;;;;;;6262592;28;20159;-51
2022/06/12 00:22:04;;;;;;;11.60;2.67;;;22.10;56.00;;;;;;6250655;28;20248;-51
2022/06/12 00:25:09;;;;;;;9.88;2.47;;;22.10;56.20;;;;;;6270876;28;21038;-53
2022/06/12 00:28:10;;;;;;;6.38;2.05;;;22.00;56.30;;;;;;6263406;28;20364;-50
2022/06/12 00:31:14;;;;;;;10.98;2.67;;;22.40;56.70;;;;;;6270773;28;21156;-53
2022/06/12 00:34:18;;;;;;;9.40;2.22;;;22.10;56.60;;;;;;6262122;28;20159;-49
2022/06/12 00:37:22;;;;;;;12.10;3.05;;;22.00;56.70;;;;;;6264491;28;20951;-49
2022/06/12 00:40:25;;;;;;;11.32;2.63;;;22.00;56.80;;;;;;6258709;28;20043;-49
2022/06/12 00:43:31;;;;;;;12.00;2.53;;;21.90;56.90;;;;;;6265417;28;20055;-50
2022/06/12 00:46:42;;;;;;;11.63;3.15;;;22.00;57.00;;;;;;6267010;28;20046;-49
2022/06/12 00:49:47;;;;;;;11.93;2.47;;;22.00;57.10;;;;;;6264428;28;20167;-51
2022/06/12 00:52:50;;;;;;;14.25;2.38;;;21.90;57.20;;;;;;6268271;28;20947;-51
2022/06/12 00:56:00;;;;;;;10.13;2.20;;;21.90;57.20;;;;;;6269950;28;20183;-49
2022/06/12 00:59:06;;;;;;;9.18;2.00;;;22.00;57.30;;;;;;6269953;28;20100;-51
2022/06/12 01:02:10;;;;;;;12.07;2.30;;;21.90;57.30;;;;;;6275323;28;20143;-52
2022/06/12 01:08:35;;;;;;;13.15;2.78;;;21.80;57.40;;;;;;6258966;28;20044;-49
2022/06/12 01:11:40;;;;;;;8.73;2.30;;;21.90;57.40;;;;;;6271601;28;21454;-49
2022/06/12 01:14:47;;;;;;;7.68;2.33;;;21.80;57.40;;;;;;6270668;28;20031;-52
2022/06/12 01:17:51;;;;;;;15.13;2.75;;;21.70;57.40;;;;;;6249406;28;20032;-50
2022/06/12 01:21:01;;;;;;;11.25;2.13;;;21.90;57.60;;;;;;6267586;28;20039;-52
2022/06/12 01:24:32;;;;;;;10.70;2.55;;;21.90;57.60;;;;;;6265148;28;20032;-48
2022/06/12 01:27:51;;;;;;;10.15;2.30;;;21.90;57.70;;;;;;6257253;28;21232;-50
2022/06/12 01:30:59;;;;;;;8.45;2.50;;;21.70;57.50;;;;;;6270560;28;20039;-52
2022/06/12 01:34:15;;;;;;;8.85;2.28;;;21.80;57.50;;;;;;6257266;28;20416;-52
2022/06/12 01:37:25;;;;;;;9.20;2.30;;;21.80;57.50;;;;;;6247981;28;20094;-52
2022/06/12 01:40:35;;;;;;;11.23;2.50;;;21.90;57.60;;;;;;6249730;28;20666;-49
2022/06/12 01:43:45;;;;;;;6.38;1.90;;;21.90;57.60;;;;;;6248955;28;20490;-52
2022/06/12 01:46:54;;;;;;;10.27;2.38;;;21.80;57.60;;;;;;6250742;28;20325;-49
2022/06/12 01:50:08;;;;;;;8.88;1.95;;;21.90;57.60;;;;;;6229322;28;20403;-47
2022/06/12 01:53:17;;;;;;;7.22;1.75;;;21.70;57.50;;;;;;6242807;28;20072;-51
2022/06/12 01:56:26;;;;;;;8.77;2.53;;;21.90;57.60;;;;;;6259534;28;20891;-53
2022/06/12 01:59:38;;;;;;;10.50;2.83;;;21.80;57.50;;;;;;6252514;28;20322;-48
2022/06/12 02:02:44;;;;;;;14.25;2.92;;;21.80;57.50;;;;;;6258662;28;20375;-51
2022/06/12 02:05:52;;;;;;;12.88;2.70;;;21.70;57.40;;;;;;6260033;28;20074;-49
2022/06/12 02:08:58;;;;;;;8.05;1.95;;;21.70;58.00;;;;;;6249352;28;20159;-49
2022/06/12 02:15:26;;;;;;;8.32;2.15;;;21.80;57.70;;;;;;6248912;28;20314;-52
2022/06/12 02:18:32;;;;;;;8.80;1.98;;;21.60;57.60;;;;;;6239624;28;20055;-50
2022/06/12 02:21:41;;;;;;;9.02;2.40;;;21.60;57.70;;;;;;6248298;28;20161;-47
2022/06/12 02:24:47;;;;;;;10.05;2.38;;;21.60;57.70;;;;;;6252663;28;20040;-49
2022/06/12 02:27:53;;;;;;;11.98;2.63;;;21.50;57.80;;;;;;6247752;28;20652;-50
2022/06/12 02:31:00;;;;;;;9.30;3.05;;;21.60;57.90;;;;;;6245233;28;20212;-50
2022/06/12 02:34:07;;;;;;;16.35;2.58;;;21.60;57.90;;;;;;6250661;28;20059;-53
2022/06/12 02:37:13;;;;;;;10.50;2.60;;;21.60;58.00;;;;;;6243473;28;20791;-50
2022/06/12 02:40:17;;;;;;;14.27;2.80;;;21.40;58.00;;;;;;6241389;28;20085;-48
2022/06/12 02:43:25;;;;;;;10.60;2.65;;;21.40;58.00;;;;;;6250038;28;20150;-51
2022/06/12 02:46:33;;;;;;;9.73;2.08;;;21.50;58.10;;;;;;6250262;28;20640;-48
2022/06/12 02:49:38;;;;;;;9.98;2.60;;;21.50;58.10;;;;;;6243197;28;20161;-52
2022/06/12 02:52:48;;;;;;;8.95;2.13;;;21.60;58.20;;;;;;6250076;28;20538;-51
2022/06/12 02:55:57;;;;;;;9.57;2.42;;;21.40;58.30;;;;;;6250376;28;20038;-53
2022/06/12 02:59:07;;;;;;;10.50;2.05;;;21.60;58.20;;;;;;6248607;28;20252;-50
2022/06/12 03:02:14;;;;;;;11.65;2.78;;;21.20;58.00;;;;;;6245599;28;20102;-50
2022/06/12 03:05:20;;;;;;;16.42;2.78;;;21.30;58.10;;;;;;6252270;28;20310;-50
2022/06/12 03:08:25;;;;;;;9.48;2.83;;;21.40;58.20;;;;;;6245882;28;20502;-51
2022/06/12 03:11:30;;;;;;;10.80;2.45;;;21.30;58.10;;;;;;6251114;28;20051;-52
2022/06/12 03:14:32;;;;;;;8.10;1.95;;;21.60;58.40;;;;;;6250162;28;20720;-52
2022/06/12 03:17:34;;;;;;;11.10;2.90;;;21.40;58.30;;;;;;6241984;28;23599;-50
2022/06/12 03:20:47;;;;;;;6.57;2.08;;;21.30;58.30;;;;;;6242773;28;20653;-51
2022/06/12 03:24:12;;;;;;;6.20;2.00;;;21.20;58.20;;;;;;6247316;28;20040;-49
2022/06/12 03:27:37;;;;;;;6.45;1.98;;;21.50;58.40;;;;;;6248506;28;20641;-50
2022/06/12 03:30:43;;;;;;;8.13;2.58;;;21.50;58.30;;;;;;6253366;28;20326;-52
2022/06/12 03:33:51;;;;;;;8.90;2.00;;;21.50;58.30;;;;;;6257394;28;20340;-52
2022/06/12 03:36:57;;;;;;;4.90;1.50;;;21.60;58.30;;;;;;6249366;28;21142;-48
2022/06/12 03:40:07;;;;;;;8.75;1.98;;;21.40;58.20;;;;;;6248964;28;20594;-48
2022/06/12 03:43:13;;;;;;;7.00;1.80;;;21.20;58.00;;;;;;6246847;28;20050;-50
2022/06/12 03:46:24;;;;;;;9.70;2.13;;;21.60;58.10;;;;;;6238892;28;20365;-51
2022/06/12 03:49:31;;;;;;;8.90;1.75;;;21.40;57.90;;;;;;6233901;28;20465;-52
2022/06/12 03:52:40;;;;;;;7.75;2.00;;;21.40;58.20;;;;;;6250795;28;20143;-51
2022/06/12 03:59:12;;;;;;;7.05;1.85;;;21.60;57.90;;;;;;6253704;28;20171;-49
2022/06/12 04:02:17;;;;;;;4.93;1.60;;;21.40;57.80;;;;;;6254442;28;20552;-51
2022/06/12 04:05:23;;;;;;;8.35;2.13;;;21.30;57.70;;;;;;6253580;28;20036;-49
2022/06/12 04:08:30;;;;;;;9.82;2.05;;;21.10;57.50;;;;;;6247205;28;20102;-52
2022/06/12 04:11:37;;;;;;;8.75;2.03;;;21.40;57.70;;;;;;6246049;28;20056;-49
2022/06/12 04:14:43;;;;;;;7.80;2.72;;;21.50;57.70;;;;;;6246393;28;20493;-48
2022/06/12 04:17:46;;;;;;;7.30;1.70;;;21.70;57.80;;;;;;6244997;28;20134;-48
2022/06/12 04:20:54;;;;;;;4.50;1.85;;;21.30;57.50;;;;;;6226376;28;20601;-50
2022/06/12 04:24:08;;;;;;;5.90;2.13;;;21.50;57.60;;;;;;6254447;28;20886;-52
2022/06/12 04:27:19;;;;;;;5.50;1.77;;;21.40;57.50;;;;;;6242857;28;20327;-50
2022/06/12 04:30:24;;;;;;;7.70;1.70;;;21.40;57.40;;;;;;6232683;28;20113;-51
2022/06/12 04:33:36;;;;;;;7.10;1.70;;;21.50;57.40;;;;;;6248792;28;20647;-52
2022/06/12 04:36:38;;;;;;;8.65;1.95;;;21.50;57.40;;;;;;6245794;28;20047;-51
2022/06/12 04:39:41;;;;;;;5.60;1.80;;;21.50;57.40;;;;;;6249662;28;20459;-51
2022/06/12 04:42:43;;;;;;;6.47;1.75;;;21.50;57.40;;;;;;6250458;28;20071;-50
2022/06/12 04:45:46;;;;;;;7.05;2.00;;;21.80;57.50;;;;;;6252501;28;20641;-51
2022/06/12 04:48:50;;;;;;;7.45;2.03;;;21.30;57.20;;;;;;6247672;28;20374;-53
2022/06/12 04:51:54;;;;;;;3.03;1.33;;;21.40;57.20;;;;;;6248236;28;20534;-52
2022/06/12 04:54:56;;;;;;;5.75;1.50;;;21.40;57.20;;;;;;6250118;28;20048;-50
2022/06/12 04:57:58;;;;;;;7.70;1.45;;;21.40;57.20;;;;;;6263514;28;20350;-49
2022/06/12 05:01:01;;;;;;;5.25;2.13;;;21.40;57.10;;;;;;6248896;28;20517;-49
2022/06/12 05:04:05;;;;;;;7.47;2.17;;;21.50;57.20;;;;;;6249840;28;20254;-48
2022/06/12 05:07:09;;;;;;;7.47;2.00;;;21.60;57.30;;;;;;6253026;28;20136;-50
2022/06/12 05:10:13;;;;;;;4.75;1.73;;;21.50;57.10;;;;;;6247325;28;20355;-47
2022/06/12 05:13:15;;;;;;;5.68;1.50;;;21.50;57.10;;;;;;6252187;28;20700;-47
2022/06/12 05:16:25;;;;;;;5.30;1.70;;;21.50;57.10;;;;;;6248461;28;20373;-48
2022/06/12 05:19:31;;;;;;;9.27;2.00;;;21.40;57.10;;;;;;6245902;28;21145;-50
2022/06/12 05:22:33;;;;;;;5.00;1.42;;;21.40;57.10;;;;;;6250719;28;20074;-51
2022/06/12 05:25:36;;;;;;;6.43;2.17;;;21.50;57.20;;;;;;6248976;28;20040;-47
2022/06/12 05:28:39;;;;;;;6.35;1.63;;;21.40;57.10;;;;;;6247140;28;20142;-51
2022/06/12 05:31:41;;;;;;;6.97;1.67;;;21.70;57.30;;;;;;6251875;28;20334;-53
2022/06/12 05:34:43;;;;;;;6.47;1.95;;;21.30;57.10;;;;;;6252665;28;20434;-51
2022/06/12 05:37:45;;;;;;;7.80;1.90;;;21.50;57.10;;;;;;6242386;28;20276;-48
2022/06/12 05:40:47;;;;;;;6.65;2.15;;;21.40;57.10;;;;;;6247450;28;20575;-52
2022/06/12 05:43:49;;;;;;;7.80;1.60;;;21.30;57.10;;;;;;6263123;28;20572;-51
2022/06/12 05:46:50;;;;;;;10.25;2.33;;;21.40;57.20;;;;;;6247079;28;20797;-50
2022/06/12 05:49:52;;;;;;;7.70;1.85;;;21.50;57.30;;;;;;6235796;28;20073;-58
2022/06/12 05:52:54;;;;;;;;;;;21.40;57.20;;;;;;6246977;28;20227;-51
2022/06/12 05:55:57;;;;;;;9.10;2.83;;;21.20;57.20;;;;;;6247193;28;20288;-51
2022/06/12 05:58:59;;;;;;;7.28;2.28;;;21.60;57.40;;;;;;6242577;28;20051;-50
2022/06/12 06:02:01;;;;;;;8.02;2.50;;;21.30;57.20;;;;;;6246167;28;20351;-48
2022/06/12 06:05:03;;;;;;;;;;;21.40;57.40;;;;;;6246422;28;20248;-49
2022/06/12 06:08:05;;;;;;;10.05;2.30;;;21.40;57.50;;;;;;6244740;28;20498;-48
2022/06/12 06:11:08;;;;;;;8.60;2.40;;;21.30;57.40;;;;;;6245929;28;20090;-48
2022/06/12 06:14:10;;;;;;;7.53;2.13;;;21.50;57.60;;;;;;6253652;28;20526;-48
2022/06/12 06:17:11;;;;;;;7.97;2.25;;;21.30;57.60;;;;;;6244683;28;21048;-47
2022/06/12 06:20:15;;;;;;;;;;;21.10;57.60;;;;;;6248129;28;20502;-48
2022/06/12 06:23:17;;;;;;;14.38;3.00;;;21.30;57.70;;;;;;6243562;28;20181;-50
2022/06/12 06:26:19;;;;;;;9.95;2.40;;;21.20;57.70;;;;;;6246498;28;20475;-49
2022/06/12 06:29:21;;;;;;;6.75;2.08;;;21.30;57.90;;;;;;6242339;28;20098;-50
2022/06/12 06:32:22;;;;;;;7.43;2.25;;;21.20;58.00;;;;;;6249375;28;20793;-46
2022/06/12 06:35:24;;;;;;;;;;;21.30;58.20;;;;;;6249102;28;20360;-52
2022/06/12 06:38:26;;;;;;;8.02;2.28;;;21.20;58.10;;;;;;6240265;28;20275;-47
2022/06/12 06:41:28;;;;;;;;;;;21.30;58.10;;;;;;6249360;28;20271;-50
2022/06/12 06:47:46;;;;;;;8.18;2.75;;;21.30;58.20;;;;;;6243545;28;20445;-49
2022/06/12 06:50:47;;;;;;;8.13;2.50;;;21.20;58.40;;;;;;6247849;28;20130;-47
2022/06/12 06:53:49;;;;;;;9.65;2.38;;;21.30;58.60;;;;;;6247429;28;20150;-51
2022/06/12 06:56:51;;;;;;;8.10;2.60;;;21.00;59.10;;;;;;6241564;28;20575;-52
2022/06/12 06:59:53;;;;;;;11.48;2.90;;;20.90;58.60;;;;;;6243496;28;20052;-52
2022/06/12 07:02:54;;;;;;;;;;;21.30;58.80;;;;;;6251291;28;20420;-49
2022/06/12 07:05:56;;;;;;;10.10;2.85;;;21.20;58.80;;;;;;6256506;28;19996;-48
2022/06/12 07:08:58;;;;;;;10.90;3.13;;;21.20;58.70;;;;;;6242480;28;20074;-53
2022/06/12 07:12:00;;;;;;;8.90;2.95;;;21.20;58.90;;;;;;6246775;28;20060;-50
2022/06/12 07:15:03;;;;;;;11.05;3.10;;;21.10;58.90;;;;;;6249216;28;20866;-49
2022/06/12 07:18:08;;;;;;;9.23;2.63;;;21.10;59.00;;;;;;6232725;28;20155;-49
2022/06/12 07:21:11;;;;;;;9.00;2.45;;;21.20;59.20;;;;;;6241785;28;20484;-50
2022/06/12 07:24:12;;;;;;;9.35;2.10;;;21.00;59.20;;;;;;6251260;28;20069;-51
2022/06/12 07:27:15;;;;;;;13.77;3.28;;;21.10;59.20;;;;;;6237255;28;20087;-51
2022/06/12 07:30:21;;;;;;;13.00;2.78;;;20.90;59.20;;;;;;6241028;28;20079;-50
2022/06/12 07:33:23;;;;;;;8.13;2.70;;;21.00;59.20;;;;;;6245462;28;20111;-51
2022/06/12 07:36:26;;;;;;;11.05;2.17;;;20.90;59.10;;;;;;6245918;28;20444;-48
2022/06/12 07:39:30;;;;;;;10.05;2.78;;;21.00;59.00;;;;;;6234420;28;20055;-49
2022/06/12 07:42:33;;;;;;;10.73;2.78;;;21.20;59.00;;;;;;6246081;28;20439;-48
2022/06/12 07:45:35;;;;;;;9.98;2.33;;;21.20;58.90;;;;;;6243436;28;20582;-51
2022/06/12 07:48:37;;;;;;;8.90;2.88;;;21.10;58.70;;;;;;6237798;28;20549;-49
2022/06/12 07:51:38;;;;;;;11.30;3.13;;;21.10;58.60;;;;;;6239358;28;20141;-53
2022/06/12 07:54:40;;;;;;;10.30;2.58;;;21.10;58.60;;;;;;6245830;28;20388;-49
2022/06/12 07:57:42;;;;;;;;;;;20.90;58.40;;;;;;6241333;28;20296;-48
2022/06/12 08:00:44;;;;;;;7.80;2.40;;;21.10;58.60;;;;;;6242406;28;20552;-52
2022/06/12 08:03:46;;;;;;;9.55;2.00;;;21.00;58.40;;;;;;6248826;28;20252;-47
2022/06/12 08:06:48;;;;;;;7.75;2.15;;;21.20;58.30;;;;;;6246788;28;20674;-52
2022/06/12 08:09:49;;;;;;;9.00;2.38;;;20.70;57.90;;;;;;6244806;28;20323;-51
2022/06/12 08:12:52;;;;;;;;;;;21.10;57.90;;;;;;6245398;28;20433;-52
2022/06/12 08:15:54;;;;;;;12.85;2.50;;;21.20;57.90;;;;;;6247409;28;20147;-51
2022/06/12 08:18:56;;;;;;;6.10;1.95;;;20.90;57.60;;;;;;6246327;28;20709;-49
2022/06/12 08:22:01;;;;;;;8.95;2.03;;;21.00;57.50;;;;;;6249907;28;20840;-52
2022/06/12 08:25:03;;;;;;;8.60;2.33;;;21.30;57.40;;;;;;6250720;28;20566;-49
2022/06/12 08:28:05;;;;;;;9.50;2.38;;;21.20;57.20;;;;;;6245221;28;20052;-49
2022/06/12 08:31:10;;;;;;;10.73;2.53;;;21.00;57.00;;;;;;6245121;28;20425;-48
2022/06/12 08:34:15;;;;;;;8.23;2.20;;;21.20;57.00;;;;;;6252534;28;20411;-48
2022/06/12 08:37:22;;;;;;;6.60;1.73;;;21.20;56.90;;;;;;6243253;28;20142;-50
2022/06/12 08:40:32;;;;;;;7.82;2.20;;;21.20;56.70;;;;;;6230287;28;20246;-48
2022/06/12 08:43:40;;;;;;;6.10;1.50;;;21.00;56.40;;;;;;6247892;28;20340;-51
2022/06/12 08:46:49;;;;;;;8.25;2.10;;;21.30;56.40;;;;;;6249345;28;20378;-48
2022/06/12 08:49:56;;;;;;;7.38;2.08;;;21.10;56.10;;;;;;6235018;28;20317;-48
2022/06/12 08:53:07;;;;;;;9.77;2.17;;;21.30;56.00;;;;;;6253111;28;20075;-51
2022/06/12 08:56:14;;;;;;;6.50;1.87;;;21.00;55.80;;;;;;6248752;28;20048;-51
2022/06/12 08:59:26;;;;;;;6.15;1.80;;;21.10;55.70;;;;;;6242565;28;20804;-49
2022/06/12 09:02:31;;;;;;;3.63;1.30;;;21.20;55.50;;;;;;6248864;28;20453;-49
2022/06/12 09:05:44;;;;;;;5.97;1.75;;;21.00;55.20;;;;;;6233776;28;20286;-52
2022/06/12 09:08:52;;;;;;;7.22;1.80;;;21.30;55.30;;;;;;6245258;28;20135;-49
2022/06/12 09:12:05;;;;;;;4.20;1.83;;;21.40;55.20;;;;;;6245683;28;20530;-50
2022/06/12 09:15:19;;;;;;;7.45;1.88;;;21.20;54.80;;;;;;6250245;28;20484;-49
2022/06/12 09:18:33;;;;;;;4.88;1.58;;;21.50;54.70;;;;;;6236742;28;20741;-50
2022/06/12 09:21:49;;;;;;;5.07;1.40;;;21.30;54.50;;;;;;6243853;28;20278;-48
2022/06/12 09:24:58;;;;;;;6.13;1.60;;;21.10;54.20;;;;;;6248330;28;20334;-53
2022/06/12 09:28:06;;;;;;;5.28;1.30;;;21.40;54.30;;;;;;6243583;28;20276;-51
2022/06/12 09:31:14;;;;;;;6.03;1.70;;;21.50;54.20;;;;;;6242108;28;20048;-49
2022/06/12 09:34:29;;;;;;;4.28;1.52;;;21.60;53.80;;;;;;6251933;28;20457;-51
2022/06/12 09:41:10;;;;;;;5.85;1.75;;;21.40;52.90;;;;;;6243617;28;20043;-48
2022/06/12 09:44:15;;;;;;;5.13;1.15;;;21.20;52.70;;;;;;6251025;28;20489;-50
2022/06/12 09:47:31;;;;;;;10.68;2.83;;;21.40;52.60;;;;;;6243127;28;20509;-47
2022/06/12 09:51:03;;;;;;;5.65;1.63;;;21.60;52.60;;;;;;6238783;28;20047;-49
2022/06/12 09:54:23;;;;;;;4.47;1.40;;;21.40;52.30;;;;;;6247198;28;21112;-48
2022/06/12 09:57:35;;;;;;;4.35;1.63;;;21.60;52.30;;;;;;6249854;28;20159;-47
2022/06/12 10:00:43;;;;;;;5.03;1.50;;;21.50;52.10;;;;;;6242323;28;20449;-52
2022/06/12 10:03:50;;;;;;;6.80;1.92;;;21.50;52.10;;;;;;6246674;28;20044;-49
2022/06/12 10:06:56;;;;;;;5.90;1.65;;;21.50;52.10;;;;;;6243705;28;20040;-51
2022/06/12 10:10:02;;;;;;;6.78;1.58;;;21.60;52.10;;;;;;6239808;28;20135;-48
2022/06/12 10:13:11;;;;;;;5.95;1.70;;;21.60;52.00;;;;;;6244921;28;21015;-50
2022/06/12 10:16:17;;;;;;;3.38;1.30;;;21.80;52.00;;;;;;6248120;28;20959;-47
2022/06/12 10:19:22;;;;;;;4.32;1.25;;;21.60;51.60;;;;;;6243110;28;20172;-51
2022/06/12 10:22:28;;;;;;;6.28;1.85;;;21.90;51.80;;;;;;6251327;28;20036;-50
2022/06/12 10:25:33;;;;;;;6.43;2.10;;;21.90;51.60;;;;;;6248928;28;20514;-52
2022/06/12 10:28:37;;;;;;;4.55;1.50;;;21.90;51.60;;;;;;6223896;28;20512;-50
2022/06/12 10:31:48;;;;;;;5.85;1.83;;;21.90;51.50;;;;;;6243391;28;20368;-48
2022/06/12 10:34:51;;;;;;;5.35;1.63;;;22.20;51.50;;;;;;6247902;28;20320;-50
2022/06/12 10:38:03;;;;;;;9.98;2.40;;;22.10;51.30;;;;;;6237115;28;20056;-50
2022/06/12 10:41:07;;;;;;;8.38;1.70;;;22.00;51.00;;;;;;6242022;28;20048;-51
2022/06/12 10:44:30;;;;;;;5.93;2.00;;;22.00;51.40;;;;;;6248824;28;20227;-52
2022/06/12 10:47:42;;;;;;;5.72;1.73;;;21.90;50.50;;;;;;6240208;28;20048;-52
2022/06/12 10:50:53;;;;;;;8.07;2.78;;;21.90;50.50;;;;;;6232780;28;20873;-50
2022/06/12 10:53:59;;;;;;;8.98;2.10;;;22.10;50.60;;;;;;6244383;28;20051;-50
2022/06/12 10:57:08;;;;;;;7.80;2.13;;;22.10;50.60;;;;;;6238074;28;20075;-50
2022/06/12 11:00:14;;;;;;;8.52;2.33;;;22.10;50.70;;;;;;6242609;28;20065;-49
2022/06/12 11:03:22;;;;;;;7.85;2.17;;;22.10;50.70;;;;;;6243844;28;20307;-51
2022/06/12 11:06:31;;;;;;;6.15;1.80;;;22.10;50.70;;;;;;6254114;28;20322;-51
2022/06/12 11:09:48;;;;;;;7.50;2.35;;;21.90;50.40;;;;;;6242095;28;20510;-48
2022/06/12 11:13:04;;;;;;;10.23;2.63;;;22.00;50.20;;;;;;6248357;28;20040;-51
2022/06/12 11:16:20;;;;;;;8.27;1.90;;;22.10;50.00;;;;;;6247890;28;20337;-49
2022/06/12 11:19:33;;;;;;;5.47;2.03;;;22.20;50.50;;;;;;6239041;28;20036;-49
2022/06/12 11:22:44;;;;;;;7.50;1.70;;;22.20;49.70;;;;;;6244824;28;20125;-50
2022/06/12 11:25:57;;;;;;;5.32;1.65;;;22.10;49.50;;;;;;6247622;28;20043;-50
2022/06/12 11:29:17;;;;;;;5.55;1.92;;;22.10;49.20;;;;;;6238840;28;20367;-48
2022/06/12 11:32:28;;;;;;;7.35;2.13;;;22.40;49.10;;;;;;6255821;28;20043;-50
2022/06/12 11:35:42;;;;;;;5.47;1.85;;;22.30;48.80;;;;;;6252943;28;20255;-51
2022/06/12 11:39:06;;;;;;;5.43;1.75;;;22.20;48.60;;;;;;6245141;28;20055;-50
2022/06/12 11:42:20;;;;;;;5.78;1.60;;;22.10;48.30;;;;;;6245386;28;20291;-52
2022/06/12 11:45:34;;;;;;;7.65;2.33;;;22.40;48.30;;;;;;6242757;28;20567;-51
2022/06/12 11:48:54;;;;;;;6.15;1.50;;;22.30;48.00;;;;;;6237576;28;20698;-48
2022/06/12 11:52:09;;;;;;;3.20;1.30;;;22.80;48.10;;;;;;6238754;28;20126;-51
2022/06/12 11:55:23;;;;;;;4.18;1.40;;;22.50;47.80;;;;;;6244690;28;20061;-52
2022/06/12 11:58:44;;;;;;;3.67;1.50;;;22.50;47.70;;;;;;6242547;28;20079;-47
2022/06/12 12:01:52;;;;;;;5.35;1.70;;;22.40;47.60;;;;;;6248286;28;21073;-51
2022/06/12 12:05:11;;;;;;;7.28;1.75;;;22.40;47.50;;;;;;6251884;28;20040;-52
2022/06/12 12:08:24;;;;;;;4.78;1.48;;;22.40;47.30;;;;;;6251130;28;20065;-51
2022/06/12 12:11:32;;;;;;;5.20;1.65;;;22.30;47.20;;;;;;6246339;28;20688;-50
2022/06/12 12:14:38;;;;;;;6.65;1.77;;;22.50;47.30;;;;;;6250953;28;20139;-52
2022/06/12 12:17:43;;;;;;;5.25;1.60;;;22.60;47.40;;;;;;6252420;28;20047;-52
2022/06/12 12:20:45;;;;;;;4.97;1.90;;;22.50;47.40;;;;;;6248927;28;20156;-49
2022/06/12 12:23:48;;;;;;;4.60;1.83;;;22.60;47.40;;;;;;6242533;28;20441;-51
2022/06/12 12:26:52;;;;;;;6.68;1.85;;;22.60;47.20;;;;;;6245511;28;20371;-51
2022/06/12 12:29:55;;;;;;;5.57;1.60;;;22.60;47.20;;;;;;6243441;28;20309;-53
2022/06/12 12:32:59;;;;;;;5.93;2.13;;;22.70;47.20;;;;;;6241721;28;20052;-50
2022/06/12 12:42:44;;;;;;;7.80;2.53;;;22.70;47.20;;;;;;6249625;28;20040;-53
2022/06/12 12:45:46;;;;;;;6.13;1.75;;;22.60;47.10;;;;;;6247354;28;20159;-52
2022/06/12 12:48:53;;;;;;;5.07;1.50;;;22.70;47.10;;;;;;6249817;28;20048;-50
2022/06/12 12:52:07;;;;;;;7.10;2.00;;;22.70;46.90;;;;;;6244344;28;20125;-51
2022/06/12 12:55:21;;;;;;;6.10;1.95;;;22.80;46.90;;;;;;6237613;28;21814;-50
2022/06/12 12:58:24;;;;;;;6.53;2.33;;;22.80;46.80;;;;;;6244265;28;21154;-49
2022/06/12 13:01:28;;;;;;;7.38;1.73;;;22.80;46.70;;;;;;6245466;28;21046;-52
2022/06/12 13:04:33;;;;;;;7.03;1.98;;;22.80;46.60;;;;;;6246425;28;20279;-51
2022/06/12 13:07:50;;;;;;;5.88;1.88;;;22.80;46.50;;;;;;6244776;28;20044;-50
2022/06/12 13:11:03;;;;;;;3.67;1.42;;;22.60;46.30;;;;;;6250423;28;20099;-49
2022/06/12 13:14:27;;;;;;;4.55;1.70;;;22.70;46.20;;;;;;6250137;28;20122;-51
2022/06/12 13:17:44;;;;;;;5.47;2.17;;;22.80;46.10;;;;;;6245663;28;20718;-51
2022/06/12 13:20:57;;;;;;;5.10;1.30;;;22.70;45.90;;;;;;6245911;28;20047;-50
2022/06/12 13:24:21;;;;;;;6.47;1.58;;;22.80;45.80;;;;;;6261660;28;20322;-48
2022/06/12 13:27:25;;;;;;;4.75;1.45;;;22.70;45.40;;;;;;6242053;28;20052;-47
2022/06/12 13:30:31;;;;;;;6.32;1.67;;;22.80;45.30;;;;;;6239064;28;20549;-51
2022/06/12 13:33:35;;;;;;;4.85;1.60;;;22.80;45.10;;;;;;6238758;28;20964;-51
2022/06/12 13:36:39;;;;;;;4.13;1.40;;;22.90;45.00;;;;;;6237543;28;20295;-52
2022/06/12 13:39:46;;;;;;;2.95;1.13;;;22.90;44.90;;;;;;6241827;28;20264;-52
2022/06/12 13:42:48;;;;;;;4.80;1.20;;;22.80;44.50;;;;;;6241751;28;20515;-49
2022/06/12 13:45:52;;;;;;;4.47;1.60;;;22.90;44.40;;;;;;6261197;28;20102;-50
2022/06/12 13:48:56;;;;;;;3.58;0.82;;;22.90;44.10;;;;;;6231637;28;20262;-52
2022/06/12 13:52:02;;;;;;;3.65;1.25;;;22.90;43.80;;;;;;6228994;28;20593;-55
2022/06/12 13:55:20;;;;;;;3.88;1.00;;;22.90;43.60;;;;;;6242653;28;20039;-52
2022/06/12 13:58:25;;;;;;;6.60;1.30;;;23.00;43.50;;;;;;6234065;28;20147;-50
2022/06/12 14:01:31;;;;;;;4.15;1.08;;;23.00;43.40;;;;;;6235880;28;20062;-52
2022/06/12 14:04:32;;;;;;;3.35;1.10;;;23.00;43.30;;;;;;6245558;28;20039;-50
2022/06/12 14:07:34;;;;;;;4.53;0.82;;;23.00;43.20;;;;;;6252505;27;22237;-51
2022/06/12 14:10:40;;;;;;;3.22;1.05;;;22.90;43.00;;;;;;6243105;28;20051;-49
2022/06/12 14:13:45;;;;;;;3.17;1.00;;;23.10;42.90;;;;;;6248451;28;20316;-49
2022/06/12 14:16:47;;;;;;;3.35;0.98;;;23.00;42.70;;;;;;6249133;28;20128;-51
2022/06/12 14:20:05;;;;;;;3.80;0.90;;;23.10;42.70;;;;;;6251596;28;20305;-51
2022/06/12 14:23:24;;;;;;;4.25;1.58;;;23.00;42.60;;;;;;6249583;28;20126;-50
2022/06/12 14:26:33;;;;;;;5.30;0.90;;;23.10;42.50;;;;;;6249598;28;20098;-53
2022/06/12 14:29:45;;;;;;;3.30;1.10;;;23.10;42.30;;;;;;6251297;28;20794;-50
2022/06/12 14:32:47;;;;;;;2.83;0.90;;;23.00;42.20;;;;;;6234749;28;20323;-52
2022/06/12 14:35:49;;;;;;;2.58;0.95;;;23.20;42.50;;;;;;6245618;28;20614;-51
2022/06/12 14:38:51;;;;;;;2.90;0.95;;;23.00;42.10;;;;;;6240859;28;20146;-52
2022/06/12 14:41:55;;;;;;;3.60;1.13;;;23.20;42.10;;;;;;6234514;28;20116;-48
2022/06/12 14:44:57;;;;;;;2.15;0.80;;;23.20;41.90;;;;;;6244188;28;20086;-49
2022/06/12 14:48:00;;;;;;;3.60;0.98;;;23.20;41.80;;;;;;6247332;28;20235;-50
2022/06/12 14:51:02;;;;;;;2.72;0.82;;;23.20;41.60;;;;;;6238374;28;20155;-51
2022/06/12 14:54:04;;;;;;;2.42;0.70;;;23.00;41.30;;;;;;6243468;28;20144;-52
2022/06/12 14:57:07;;;;;;;3.00;0.80;;;23.20;41.30;;;;;;6239978;28;20641;-53
2022/06/12 15:00:19;;;;;;;2.97;1.02;;;23.20;41.10;;;;;;6232111;28;20545;-47
2022/06/12 15:03:21;;;;;;;3.45;0.90;;;23.20;40.90;;;;;;6225645;28;20705;-53
2022/06/12 15:06:22;;;;;;;1.92;0.63;;;23.20;40.80;;;;;;6245816;28;20196;-55
2022/06/12 15:09:24;;;;;;;2.83;0.70;;;23.30;40.70;;;;;;6236846;28;20062;-51
2022/06/12 15:12:26;;;;;;;3.47;0.82;;;23.30;40.60;;;;;;6235370;28;20052;-50
2022/06/12 15:15:28;;;;;;;2.80;0.60;;;23.30;40.40;;;;;;6237010;28;20983;-50
2022/06/12 15:18:30;;;;;;;;;;;23.10;40.10;;;;;;6234894;28;20083;-49
2022/06/12 15:21:34;;;;;;;1.15;0.57;;;23.40;40.40;;;;;;6240842;28;20279;-53
2022/06/12 15:24:36;;;;;;;1.58;0.63;;;23.40;40.30;;;;;;6234750;28;20608;-49
2022/06/12 15:30:55;;;;;;;1.40;0.70;;;23.30;40.20;;;;;;6230110;28;20683;-52
2022/06/12 15:33:58;;;;;;;2.67;0.63;;;23.40;40.20;;;;;;6235789;28;20289;-52
2022/06/12 15:37:00;;;;;;;2.58;0.75;;;23.30;40.00;;;;;;6238909;28;20298;-50
2022/06/12 15:40:01;;;;;;;2.22;0.73;;;23.40;39.90;;;;;;6208967;28;20089;-50
2022/06/12 15:43:03;;;;;;;1.27;0.40;;;23.30;39.80;;;;;;6229802;28;20241;-50
2022/06/12 15:46:05;;;;;;;1.70;0.45;;;23.30;39.60;;;;;;6228197;28;20663;-47
2022/06/12 15:49:16;;;;;;;2.95;0.80;;;23.40;39.60;;;;;;6219193;28;20480;-49
2022/06/12 15:52:17;;;;;;;2.25;0.30;;;23.40;39.40;;;;;;6223322;28;20441;-49
2022/06/12 15:55:19;;;;;;;1.65;0.73;;;23.40;39.30;;;;;;6226003;28;20047;-52
2022/06/12 15:58:20;;;;;;;1.30;0.40;;;23.40;39.10;;;;;;6223093;28;20419;-51
2022/06/12 16:01:26;;;;;;;2.05;0.70;;;23.40;38.90;;;;;;6213956;28;20090;-51
2022/06/12 16:04:29;;;;;;;1.67;0.88;;;23.50;38.90;;;;;;6209052;28;20930;-49
2022/06/12 16:07:30;;;;;;;3.00;0.80;;;23.40;38.80;;;;;;6222559;28;20161;-50
2022/06/12 16:10:32;;;;;;;3.45;0.57;;;23.50;38.90;;;;;;6220072;28;20176;-51
2022/06/12 16:13:34;;;;;;;1.98;0.73;;;23.40;38.90;;;;;;6202896;28;20046;-47
2022/06/12 16:16:36;;;;;;;4.57;1.02;;;23.70;39.10;;;;;;6218888;28;20323;-50
2022/06/12 16:19:39;;;;;;;0.65;0.40;;;23.60;39.10;;;;;;6220040;28;20289;-50
2022/06/12 16:22:40;;;;;;;1.08;0.43;;;23.40;38.90;;;;;;6228317;28;20547;-49
2022/06/12 16:25:47;;;;;;;1.13;0.40;;;23.50;38.90;;;;;;6220967;28;20449;-51
2022/06/12 16:28:53;;;;;;;1.00;0.40;;;23.60;38.90;;;;;;6227169;28;20188;-50
2022/06/12 16:31:55;;;;;;;1.17;0.47;;;23.90;39.10;;;;;;6225287;28;20384;-46
2022/06/12 16:34:59;;;;;;;1.67;0.50;;;23.60;39.00;;;;;;6221471;28;20080;-51
2022/06/12 16:38:00;;;;;;;1.92;0.50;;;23.60;39.00;;;;;;6224457;28;20336;-48